createdAt,value
2019-01-25T00:01:14.198Z,86.11
2019-01-25T00:03:43.492Z,85.87
2019-01-25T00:06:52.180Z,86.08
2019-01-25T00:09:40.631Z,86.24
2019-01-25T00:12:10.019Z,86.47
2019-01-25T00:14:39.714Z,86.44
2019-01-25T00:17:09.079Z,86.39
2019-01-25T00:19:57.372Z,86.54
2019-01-25T00:22:26.886Z,86.56
2019-01-25T00:24:56.212Z,86.73
2019-01-25T00:27:25.707Z,86.84
2019-01-25T00:29:54.998Z,86.84
2019-01-25T00:32:24.407Z,86.84
2019-01-25T00:34:53.749Z,86.95
2019-01-25T00:37:23.433Z,87.03
2019-01-25T00:40:12.592Z,87.08
2019-01-25T00:42:41.875Z,86.87
2019-01-25T00:48:07.308Z,87.20
2019-01-25T00:50:36.911Z,87.29
2019-01-25T00:56:20.861Z,87.34
2019-01-25T00:58:50.331Z,87.46
2019-01-25T01:01:19.620Z,87.39
2019-01-25T01:03:49.315Z,87.39
2019-01-25T01:06:18.602Z,87.24
2019-01-25T01:08:48.306Z,87.54
2019-01-25T01:11:17.597Z,87.45
2019-01-25T01:13:47.313Z,87.60
2019-01-25T01:16:16.608Z,87.61
2019-01-25T01:18:46.226Z,87.63
2019-01-25T01:21:35.306Z,87.53
2019-01-25T01:27:13.283Z,87.68
2019-01-25T01:29:42.571Z,87.67
2019-01-25T01:32:12.194Z,87.74
2019-01-25T01:34:41.487Z,87.82
2019-01-25T01:37:11.078Z,87.79
2019-01-25T01:39:40.411Z,87.86
2019-01-25T01:42:10.097Z,87.98
2019-01-25T01:44:39.383Z,87.91
2019-01-25T01:47:09.184Z,87.95
2019-01-25T01:49:57.528Z,88.05
2019-01-25T01:52:26.853Z,87.94
2019-01-25T01:54:56.272Z,88.10
2019-01-25T01:57:25.562Z,88.24
2019-01-25T01:59:55.171Z,88.07
2019-01-25T02:02:24.458Z,88.22
2019-01-25T02:04:54.158Z,88.20
2019-01-25T02:07:42.661Z,88.42
2019-01-25T02:10:14.773Z,88.43
2019-01-25T02:18:13.498Z,88.67
2019-01-25T02:20:43.101Z,88.82
2019-01-25T02:23:12.396Z,88.86
2019-01-25T02:25:41.971Z,88.91
2019-01-25T02:28:23.215Z,88.85
2019-01-25T02:30:52.539Z,88.87
2019-01-25T02:33:21.863Z,88.84
2019-01-25T02:35:51.167Z,88.92
2019-01-25T02:38:39.429Z,88.90
2019-01-25T02:41:08.793Z,88.95
2019-01-25T02:43:38.088Z,89.00
2019-01-25T02:46:07.375Z,89.10
2019-01-25T02:48:36.779Z,89.12
2019-01-25T02:51:06.125Z,89.23
2019-01-25T02:53:35.454Z,89.21
2019-01-25T02:56:05.562Z,89.28
2019-01-25T02:58:34.880Z,89.28
2019-01-25T03:01:24.514Z,89.39
2019-01-25T03:03:53.843Z,89.43
2019-01-25T03:06:23.198Z,89.28
2019-01-25T03:11:40.721Z,89.37
2019-01-25T03:14:29.032Z,89.44
2019-01-25T03:19:46.613Z,89.40
2019-01-25T03:22:16.119Z,89.36
2019-01-25T03:24:45.397Z,89.35
2019-01-25T03:27:14.846Z,89.24
2019-01-25T03:29:44.148Z,89.29
2019-01-25T03:32:13.474Z,89.09
2019-01-25T03:35:01.983Z,89.35
2019-01-25T03:37:31.308Z,89.23
2019-01-25T03:40:01.017Z,89.09
2019-01-25T03:42:50.737Z,88.97
2019-01-25T03:45:21.132Z,88.87
2019-01-25T03:47:50.618Z,88.66
2019-01-25T03:50:39.219Z,88.84
2019-01-25T03:53:08.530Z,88.78
2019-01-25T03:55:38.114Z,88.46
2019-01-25T03:58:07.404Z,88.46
2019-01-25T04:00:36.918Z,88.56
2019-01-25T04:03:06.315Z,88.71
2019-01-25T04:05:35.896Z,88.62
2019-01-25T04:08:44.480Z,88.61
2019-01-25T04:11:14.109Z,88.43
2019-01-25T04:13:43.411Z,88.67
2019-01-25T04:16:12.917Z,88.70
2019-01-25T04:18:42.250Z,88.85
2019-01-25T04:21:11.927Z,88.64
2019-01-25T04:23:41.184Z,88.41
2019-01-25T04:26:10.551Z,88.49
2019-01-25T04:28:39.835Z,88.17
2019-01-25T04:31:09.358Z,87.47
2019-01-25T04:33:38.628Z,87.46
2019-01-25T04:36:08.220Z,87.76
2019-01-25T04:38:37.499Z,87.81
2019-01-25T04:41:11.734Z,87.11
2019-01-25T04:43:38.224Z,87.30
2019-01-25T04:46:26.411Z,87.40
2019-01-25T04:48:56.009Z,87.66
2019-01-25T04:51:25.299Z,87.46
2019-01-25T04:53:54.876Z,87.24
2019-01-25T04:59:12.450Z,87.32
2019-01-25T05:01:41.804Z,87.15
2019-01-25T05:04:11.108Z,86.97
2019-01-25T05:06:59.337Z,87.14
2019-01-25T05:12:23.818Z,87.23
2019-01-25T05:14:53.107Z,87.16
2019-01-25T05:17:22.489Z,87.09
2019-01-25T05:19:51.982Z,87.29
2019-01-25T05:22:21.275Z,87.22
2019-01-25T05:24:50.674Z,87.08
2019-01-25T05:27:19.977Z,86.96
2019-01-25T05:29:52.143Z,86.89
2019-01-25T05:32:21.447Z,87.09
2019-01-25T05:34:50.968Z,86.79
2019-01-25T05:37:20.279Z,87.03
2019-01-25T05:39:49.715Z,87.19
2019-01-25T05:45:26.442Z,87.23
2019-01-25T05:47:55.760Z,87.16
2019-01-25T05:50:25.116Z,87.01
2019-01-25T05:52:54.553Z,87.21
2019-01-25T05:55:24.009Z,87.19
2019-01-25T05:58:00.044Z,86.91
2019-01-25T06:00:33.102Z,86.71
2019-01-25T06:03:21.478Z,86.56
2019-01-25T06:05:52.723Z,86.89
2019-01-25T06:08:35.276Z,87.09
2019-01-25T06:11:23.622Z,87.03
2019-01-25T06:16:42.744Z,86.55
2019-01-25T06:19:12.112Z,86.02
2019-01-25T06:21:41.414Z,85.80
2019-01-25T06:24:10.897Z,86.19
2019-01-25T06:26:59.242Z,86.37
2019-01-25T06:30:07.936Z,86.47
2019-01-25T06:32:37.238Z,86.51
2019-01-25T06:35:06.863Z,86.65
2019-01-25T06:37:36.171Z,86.57
2019-01-25T06:40:24.522Z,86.72
2019-01-25T06:42:53.826Z,86.59
2019-01-25T06:45:23.132Z,86.67
2019-01-25T06:50:27.247Z,86.60
2019-01-25T06:52:56.635Z,86.27
2019-01-25T06:55:26.392Z,86.49
2019-01-25T06:58:14.629Z,86.41
2019-01-25T07:00:50.653Z,86.24
2019-01-25T07:03:19.930Z,86.56
2019-01-25T07:05:49.261Z,86.59
2019-01-25T07:08:19.213Z,86.66
2019-01-25T07:10:48.854Z,86.67
2019-01-25T07:13:18.148Z,86.82
2019-01-25T07:15:47.812Z,86.82
2019-01-25T07:18:17.116Z,86.80
2019-01-25T07:20:46.662Z,87.00
2019-01-25T07:23:15.964Z,86.97
2019-01-25T07:25:45.240Z,87.32
2019-01-25T07:28:14.576Z,87.35
2019-01-25T07:30:44.145Z,87.24
2019-01-25T07:33:13.455Z,87.08
2019-01-25T07:38:32.309Z,87.50
2019-01-25T07:41:01.673Z,87.35
2019-01-25T07:43:31.313Z,87.69
2019-01-25T07:46:00.591Z,87.74
2019-01-25T07:48:30.329Z,87.64
2019-01-25T07:50:59.624Z,87.80
2019-01-25T07:53:29.277Z,88.16
2019-01-25T07:55:58.601Z,87.62
2019-01-25T07:58:28.117Z,88.04
2019-01-25T08:00:57.433Z,87.76
2019-01-25T08:03:26.954Z,87.82
2019-01-25T08:05:56.283Z,87.79
2019-01-25T08:08:25.759Z,87.84
2019-01-25T08:10:55.079Z,87.90
2019-01-25T08:13:24.681Z,87.64
2019-01-25T08:15:53.980Z,87.92
2019-01-25T08:18:42.422Z,88.04
2019-01-25T08:21:12.089Z,88.02
2019-01-25T08:23:41.347Z,87.79
2019-01-25T08:26:10.873Z,88.07
2019-01-25T08:28:40.181Z,88.02
2019-01-25T08:31:09.611Z,88.03
2019-01-25T08:33:38.889Z,88.03
2019-01-25T08:36:19.325Z,88.13
2019-01-25T08:38:59.987Z,88.14
2019-01-25T08:41:29.294Z,88.05
2019-01-25T08:43:58.912Z,88.05
2019-01-25T08:46:47.463Z,88.17
2019-01-25T08:49:16.863Z,87.93
2019-01-25T08:51:46.370Z,88.04
2019-01-25T08:54:16.014Z,87.87
2019-01-25T08:56:46.885Z,87.96
2019-01-25T08:59:16.267Z,88.01
2019-01-25T09:02:04.507Z,88.24
2019-01-25T09:04:34.048Z,88.18
2019-01-25T09:07:03.325Z,88.10
2019-01-25T09:09:32.744Z,87.83
2019-01-25T09:12:02.045Z,88.08
2019-01-25T09:19:55.051Z,88.06
2019-01-25T09:22:24.347Z,88.23
2019-01-25T09:24:53.833Z,88.32
2019-01-25T09:27:43.556Z,87.94
2019-01-25T09:32:54.701Z,87.93
2019-01-25T09:35:24.011Z,87.47
2019-01-25T09:38:12.504Z,87.69
2019-01-25T09:40:42.131Z,87.62
2019-01-25T09:43:11.400Z,87.52
2019-01-25T09:45:41.191Z,87.76
2019-01-25T09:48:10.473Z,87.94
2019-01-25T09:50:40.168Z,88.14
2019-01-25T09:53:09.459Z,87.83
2019-01-25T09:55:39.154Z,87.70
2019-01-25T09:58:11.066Z,87.58
2019-01-25T10:01:00.983Z,87.54
2019-01-25T10:03:30.309Z,87.74
2019-01-25T10:05:59.667Z,87.49
2019-01-25T10:08:28.972Z,87.68
2019-01-25T10:10:58.320Z,87.24
2019-01-25T10:13:27.706Z,87.62
2019-01-25T10:15:56.985Z,87.84
2019-01-25T10:18:26.298Z,87.58
2019-01-25T10:20:55.596Z,87.13
2019-01-25T10:23:25.008Z,87.37
2019-01-25T10:25:54.473Z,87.00
2019-01-25T10:28:23.985Z,87.36
2019-01-25T10:30:53.284Z,87.27
2019-01-25T10:33:22.718Z,87.16
2019-01-25T10:35:52.003Z,87.14
2019-01-25T10:38:21.372Z,87.11
2019-01-25T10:40:50.665Z,86.16
2019-01-25T10:43:20.192Z,86.68
2019-01-25T10:45:49.542Z,86.41
2019-01-25T10:48:19.058Z,86.94
2019-01-25T10:50:48.352Z,86.58
2019-01-25T10:53:19.372Z,86.33
2019-01-25T10:55:48.713Z,85.97
2019-01-25T10:58:18.091Z,85.95
2019-01-25T11:00:47.383Z,85.04
2019-01-25T11:03:16.805Z,85.80
2019-01-25T11:05:46.102Z,85.29
2019-01-25T11:08:15.600Z,85.15
2019-01-25T11:10:44.901Z,85.37
2019-01-25T11:13:14.232Z,85.28
2019-01-25T11:15:43.512Z,84.73
2019-01-25T11:18:13.010Z,84.10
2019-01-25T11:20:42.299Z,84.15
2019-01-25T11:23:12.045Z,84.13
2019-01-25T11:26:00.711Z,83.69
2019-01-25T11:28:29.995Z,84.59
2019-01-25T11:30:59.334Z,84.62
2019-01-25T11:33:28.652Z,84.08
2019-01-25T11:35:58.122Z,83.48
2019-01-25T11:38:27.416Z,84.07
2019-01-25T11:40:57.151Z,83.65
2019-01-25T11:43:26.452Z,82.92
2019-01-25T11:45:56.171Z,83.66
2019-01-25T11:48:25.465Z,83.97
2019-01-25T11:50:54.951Z,83.77
2019-01-25T11:53:24.237Z,83.57
2019-01-25T11:55:53.842Z,82.90
2019-01-25T11:58:23.160Z,82.91
2019-01-25T12:00:53.072Z,83.67
2019-01-25T12:03:22.364Z,83.81
2019-01-25T12:05:52.178Z,84.02
2019-01-25T12:08:21.472Z,83.40
2019-01-25T12:10:51.171Z,84.20
2019-01-25T12:13:20.490Z,83.69
2019-01-25T12:15:51.384Z,84.04
2019-01-25T12:18:21.029Z,83.95
2019-01-25T12:20:50.511Z,83.45
2019-01-25T12:23:39.144Z,84.12
2019-01-25T12:26:08.474Z,84.25
2019-01-25T12:28:38.075Z,83.92
2019-01-25T12:31:07.387Z,83.73
2019-01-25T12:33:36.944Z,83.40
2019-01-25T12:36:06.229Z,83.53
2019-01-25T12:38:35.696Z,83.33
2019-01-25T12:44:13.836Z,83.46
2019-01-25T12:46:43.144Z,83.76
2019-01-25T12:49:12.707Z,83.92
2019-01-25T12:52:03.043Z,84.09
2019-01-25T12:54:32.353Z,83.98
2019-01-25T12:57:01.625Z,83.74
2019-01-25T12:59:30.950Z,84.10
2019-01-25T13:04:48.996Z,84.43
2019-01-25T13:07:18.317Z,84.50
2019-01-25T13:09:47.806Z,84.25
2019-01-25T13:12:17.163Z,84.64
2019-01-25T13:14:46.865Z,84.66
2019-01-25T13:17:35.145Z,84.91
2019-01-25T13:23:13.982Z,83.69
2019-01-25T13:29:09.702Z,83.45
2019-01-25T13:31:39.453Z,83.95
2019-01-25T13:34:10.583Z,83.09
2019-01-25T13:36:39.897Z,83.27
2019-01-25T13:39:29.307Z,82.92
2019-01-25T13:44:41.722Z,83.65
2019-01-25T13:47:11.100Z,83.67
2019-01-25T13:49:40.451Z,83.36
2019-01-25T13:52:09.973Z,82.88
2019-01-25T13:54:39.343Z,82.84
2019-01-25T13:57:08.683Z,83.28
2019-01-25T13:59:38.026Z,83.12
2019-01-25T14:02:07.316Z,82.83
2019-01-25T14:04:36.610Z,82.74
2019-01-25T14:07:06.060Z,81.73
2019-01-25T14:09:35.358Z,81.50
2019-01-25T14:12:04.762Z,81.94
2019-01-25T14:14:34.160Z,81.70
2019-01-25T14:17:03.495Z,81.91
2019-01-25T14:19:32.793Z,82.62
2019-01-25T14:22:02.142Z,82.42
2019-01-25T14:24:31.436Z,82.26
2019-01-25T14:27:00.790Z,81.96
2019-01-25T14:29:30.323Z,81.38
2019-01-25T14:31:59.635Z,82.23
2019-01-25T14:34:29.066Z,81.90
2019-01-25T14:36:58.480Z,81.60
2019-01-25T14:39:28.156Z,81.44
2019-01-25T14:41:57.463Z,81.68
2019-01-25T14:44:26.962Z,81.99
2019-01-25T14:46:56.280Z,81.77
2019-01-25T14:49:25.756Z,82.14
2019-01-25T14:51:55.094Z,82.22
2019-01-25T14:54:24.524Z,82.50
2019-01-25T14:56:53.873Z,82.10
2019-01-25T14:59:23.405Z,81.84
2019-01-25T15:01:52.689Z,81.42
2019-01-25T15:04:22.340Z,81.21
2019-01-25T15:06:51.651Z,82.32
2019-01-25T15:09:21.227Z,82.04
2019-01-25T15:11:50.574Z,82.44
2019-01-25T15:14:20.030Z,81.70
2019-01-25T15:16:49.314Z,82.48
2019-01-25T15:19:18.792Z,81.95
2019-01-25T15:21:48.099Z,82.57
2019-01-25T15:24:17.574Z,82.62
2019-01-25T15:26:46.862Z,82.18
2019-01-25T15:29:16.328Z,82.38
2019-01-25T15:31:45.642Z,82.77
2019-01-25T15:34:15.403Z,83.16
2019-01-25T15:36:44.820Z,83.19
2019-01-25T15:39:14.263Z,83.18
2019-01-25T15:41:43.589Z,82.54
2019-01-25T15:44:13.249Z,83.03
2019-01-25T15:47:01.764Z,83.19
2019-01-25T15:49:31.098Z,83.55
2019-01-25T15:52:00.622Z,83.75
2019-01-25T15:54:29.939Z,83.29
2019-01-25T15:57:18.277Z,83.25
2019-01-25T15:59:47.732Z,83.72
2019-01-25T16:02:17.156Z,83.71
2019-01-25T16:04:46.627Z,83.62
2019-01-25T16:07:15.916Z,83.96
2019-01-25T16:09:45.221Z,83.97
2019-01-25T16:12:14.530Z,84.04
2019-01-25T16:14:43.975Z,84.04
2019-01-25T16:17:13.297Z,83.79
2019-01-25T16:19:42.754Z,83.99
2019-01-25T16:22:12.044Z,84.16
2019-01-25T16:24:41.395Z,84.13
2019-01-25T16:29:58.972Z,84.34
2019-01-25T16:32:28.298Z,84.59
2019-01-25T16:34:57.662Z,84.51
2019-01-25T16:37:26.981Z,84.68
2019-01-25T16:39:56.300Z,84.91
2019-01-25T16:42:25.711Z,84.96
2019-01-25T16:44:55.117Z,85.20
2019-01-25T16:47:24.413Z,85.17
2019-01-25T16:49:53.752Z,85.32
2019-01-25T16:52:23.066Z,85.42
2019-01-25T16:54:52.406Z,85.70
2019-01-25T16:57:21.698Z,85.48
2019-01-25T16:59:51.135Z,85.53
2019-01-25T17:02:20.435Z,85.60
2019-01-25T17:04:50.192Z,85.61
2019-01-25T17:07:19.499Z,85.68
2019-01-25T17:09:48.952Z,85.66
2019-01-25T17:12:18.267Z,85.73
2019-01-25T17:14:47.659Z,85.71
2019-01-25T17:17:16.973Z,85.71
2019-01-25T17:19:46.328Z,85.60
2019-01-25T17:22:15.675Z,85.54
2019-01-25T17:24:45.333Z,85.52
2019-01-25T17:27:14.646Z,85.64
2019-01-25T17:29:44.319Z,85.78
2019-01-25T17:32:13.635Z,85.63
2019-01-25T17:34:43.301Z,85.82
2019-01-25T17:37:12.605Z,85.81
2019-01-25T17:39:42.154Z,85.96
2019-01-25T17:42:11.461Z,85.79
2019-01-25T17:44:41.538Z,85.70
2019-01-25T17:47:12.058Z,85.58
2019-01-25T17:49:41.363Z,85.83
2019-01-25T17:52:10.718Z,85.40
2019-01-25T17:54:59.090Z,84.98
2019-01-25T17:57:28.477Z,84.58
2019-01-25T18:00:29.038Z,84.86
2019-01-25T18:02:58.474Z,84.70
2019-01-25T18:05:27.935Z,84.81
2019-01-25T18:07:57.331Z,84.57
2019-01-25T18:10:26.880Z,84.98
2019-01-25T18:16:05.023Z,85.15
2019-01-25T18:18:34.313Z,85.17
2019-01-25T18:21:04.227Z,85.19
2019-01-25T18:23:33.518Z,85.43
2019-01-25T18:26:26.053Z,85.42
2019-01-25T18:31:55.737Z,85.38
2019-01-25T18:34:25.042Z,85.26
2019-01-25T18:36:54.362Z,85.51
2019-01-25T18:39:23.653Z,85.36
2019-01-25T18:41:53.071Z,85.52
2019-01-25T18:44:22.379Z,85.61
2019-01-25T18:47:10.845Z,85.35
2019-01-25T18:49:40.379Z,85.02
2019-01-25T18:52:09.677Z,85.04
2019-01-25T18:54:39.218Z,84.91
2019-01-25T18:57:08.544Z,85.07
2019-01-25T18:59:38.224Z,85.02
2019-01-25T19:02:07.489Z,84.64
2019-01-25T19:04:36.981Z,84.61
2019-01-25T19:07:25.317Z,84.68
2019-01-25T19:09:54.618Z,84.61
2019-01-25T19:12:24.101Z,84.84
2019-01-25T19:14:53.506Z,84.71
2019-01-25T19:17:23.292Z,84.52
2019-01-25T19:19:52.583Z,84.80
2019-01-25T19:22:22.137Z,85.06
2019-01-25T19:24:51.456Z,85.15
2019-01-25T19:27:23.274Z,84.87
2019-01-25T19:29:52.596Z,84.76
2019-01-25T19:32:41.147Z,84.84
2019-01-25T19:38:25.290Z,84.70
2019-01-25T19:40:54.811Z,84.31
2019-01-25T19:43:24.596Z,84.46
2019-01-25T19:45:54.068Z,84.38
2019-01-25T19:48:23.601Z,83.96
2019-01-25T19:53:48.651Z,84.01
2019-01-25T19:56:37.057Z,84.34
2019-01-25T19:59:46.024Z,84.06
2019-01-25T20:02:15.516Z,83.72
2019-01-25T20:04:44.865Z,83.84
2019-01-25T20:07:33.228Z,84.00
2019-01-25T20:12:51.342Z,83.82
2019-01-25T20:15:20.862Z,83.92
2019-01-25T20:17:50.476Z,83.90
2019-01-25T20:20:22.164Z,83.99
2019-01-25T20:22:51.642Z,84.10
2019-01-25T20:26:00.370Z,83.89
2019-01-25T20:28:29.758Z,83.75
2019-01-25T20:30:59.122Z,84.61
2019-01-25T20:34:07.981Z,84.11
2019-01-25T20:39:25.726Z,84.31
2019-01-25T20:41:55.152Z,84.26
2019-01-25T20:44:24.544Z,84.72
2019-01-25T20:46:53.849Z,84.72
2019-01-25T20:49:23.144Z,84.67
2019-01-25T20:51:52.544Z,85.02
2019-01-25T20:54:21.972Z,84.71
2019-01-25T20:56:51.361Z,84.67
2019-01-25T20:59:20.667Z,84.54
2019-01-25T21:01:50.017Z,84.68
2019-01-25T21:04:19.367Z,84.54
2019-01-25T21:06:48.913Z,84.73
2019-01-25T21:09:18.218Z,84.56
2019-01-25T21:11:47.605Z,84.70
2019-01-25T21:14:16.938Z,84.79
2019-01-25T21:16:46.340Z,84.49
2019-01-25T21:19:15.665Z,84.35
2019-01-25T21:21:45.061Z,84.41
2019-01-25T21:24:14.452Z,84.40
2019-01-25T21:26:44.343Z,84.56
2019-01-25T21:29:13.641Z,84.66
2019-01-25T21:31:43.269Z,84.55
2019-01-25T21:34:12.574Z,84.58
2019-01-25T21:36:42.109Z,84.82
2019-01-25T21:39:11.526Z,85.09
2019-01-25T21:41:41.075Z,85.16
2019-01-25T21:44:10.615Z,85.01
2019-01-25T21:46:40.649Z,84.74
2019-01-25T21:49:09.996Z,85.02
2019-01-25T21:51:39.413Z,85.06
2019-01-25T21:54:08.735Z,84.93
2019-01-25T21:56:38.309Z,84.98
2019-01-25T21:59:07.618Z,84.93
2019-01-25T22:04:12.798Z,84.94
2019-01-25T22:06:42.123Z,84.81
2019-01-25T22:09:30.560Z,85.09
2019-01-25T22:12:00.668Z,84.97
2019-01-25T22:14:29.977Z,85.05
2019-01-25T22:19:34.470Z,85.02
2019-01-25T22:22:03.954Z,85.12
2019-01-25T22:24:33.624Z,84.93
2019-01-25T22:27:02.976Z,85.13
2019-01-25T22:29:32.353Z,85.03
2019-01-25T22:32:01.773Z,85.01
2019-01-25T22:34:31.618Z,85.16
2019-01-25T22:37:00.954Z,85.19
2019-01-25T22:39:30.356Z,85.23
2019-01-25T22:41:59.733Z,85.40
2019-01-25T22:44:29.269Z,85.23
2019-01-25T22:46:58.901Z,85.11
2019-01-25T22:49:28.695Z,85.26
2019-01-25T22:51:57.982Z,85.11
2019-01-25T22:54:27.408Z,85.40
2019-01-25T22:56:56.738Z,85.27
2019-01-25T22:59:26.401Z,85.05
2019-01-25T23:01:55.688Z,85.05
2019-01-25T23:04:56.275Z,85.31
2019-01-25T23:07:44.607Z,84.97
2019-01-25T23:10:16.707Z,85.03
2019-01-25T23:13:05.457Z,85.16
2019-01-25T23:15:34.764Z,85.24
2019-01-25T23:18:04.262Z,85.15
2019-01-25T23:20:33.564Z,84.91
2019-01-25T23:23:03.328Z,84.65
2019-01-25T23:25:32.993Z,84.62
2019-01-25T23:28:02.695Z,85.00
2019-01-25T23:30:31.997Z,84.54
2019-01-25T23:33:01.560Z,84.66
2019-01-25T23:35:30.874Z,84.20
2019-01-25T23:40:48.856Z,84.42
2019-01-25T23:43:18.154Z,84.31
2019-01-25T23:45:47.689Z,84.36
2019-01-25T23:48:16.988Z,84.54
2019-01-25T23:50:46.302Z,84.44
2019-01-25T23:53:15.626Z,84.34
2019-01-25T23:55:45.117Z,84.33
2019-01-25T23:58:14.390Z,84.52
